Time;durP1;ratioP1;P1;durP2;ratioP2;P2;SDS_P1;SDS_P2;PMS_P1;PMS_P2;Temp;Humidity;BMP_temperature;BMP_pressure;BME280_temperature;BME280_humidity;BME280_pressure;Samples;Min_cycle;Max_cycle;Signal;HPM_P1;HPM_P2
2023/06/10 02:43:50;;;;;;;9.10;6.60;;;;;;;19.98;68.46;99081.88;107099;1305;549894;-41
2023/06/10 02:46:16;;;;;;;7.80;6.80;;;;;;;19.92;68.36;99087.02;107385;1312;22446;-42
2023/06/10 02:48:46;;;;;;;8.30;7.40;;;;;;;19.90;68.67;99088.70;107407;1312;23087;-41
2023/06/10 02:51:11;;;;;;;11.60;7.20;;;;;;;19.84;69.12;99089.80;107408;1312;22505;-41
2023/06/10 02:53:37;;;;;;;11.10;7.20;;;;;;;19.78;69.83;99096.91;107393;1312;23161;-41
2023/06/10 02:56:02;;;;;;;9.80;8.10;;;;;;;19.67;70.98;99103.65;107172;1309;330957;-41
2023/06/10 02:58:27;;;;;;;14.60;8.10;;;;;;;19.58;71.27;99105.80;107626;1309;23399;-41
2023/06/10 03:00:53;;;;;;;9.50;7.80;;;;;;;19.57;70.78;99103.95;107599;1309;22315;-42
2023/06/10 03:03:18;;;;;;;11.20;7.70;;;;;;;19.56;71.03;99103.50;107603;1309;23257;-40
2023/06/10 03:05:43;;;;;;;16.70;8.80;;;;;;;19.60;69.97;99103.65;107617;1309;22296;-41
2023/06/10 03:08:09;;;;;;;10.10;8.10;;;;;;;19.55;71.09;99101.60;107615;1309;22448;-41
2023/06/10 03:10:34;;;;;;;16.10;8.70;;;;;;;19.52;70.90;99103.13;107243;1309;22552;-39
2023/06/10 03:13:00;;;;;;;12.90;9.30;;;;;;;19.49;70.98;99102.88;107317;1309;22272;-40
2023/06/10 03:15:25;;;;;;;15.10;9.80;;;;;;;19.49;71.11;99104.52;107598;1309;22511;-41
2023/06/10 03:17:50;;;;;;;12.70;9.40;;;;;;;19.47;71.29;99103.98;107613;1309;22323;-40
2023/06/10 03:20:16;;;;;;;14.00;9.50;;;;;;;19.45;71.60;99102.58;107616;1309;22810;-41
2023/06/10 03:22:42;;;;;;;15.70;9.80;;;;;;;19.46;71.83;99105.11;107587;1309;22266;-41
2023/06/10 03:25:13;;;;;;;12.20;9.80;;;;;;;19.47;71.55;99105.05;107641;1309;22916;-40
2023/06/10 03:27:40;;;;;;;14.20;10.10;;;;;;;19.46;71.07;99103.84;107596;1309;23037;-40
2023/06/10 03:30:06;;;;;;;16.50;10.80;;;;;;;19.42;72.23;99101.56;107628;1309;22096;-41
2023/06/10 03:32:32;;;;;;;12.50;9.90;;;;;;;19.39;72.60;99104.23;107603;1309;22342;-40
2023/06/10 03:34:57;;;;;;;17.90;10.20;;;;;;;19.36;72.21;99097.88;107604;1309;22935;-41
2023/06/10 03:37:24;;;;;;;17.50;10.70;;;;;;;19.34;72.66;99100.76;107613;1309;23175;-41
2023/06/10 03:39:49;;;;;;;14.20;9.90;;;;;;;19.31;73.04;99102.08;107611;1294;22200;-40
2023/06/10 03:42:14;;;;;;;16.80;9.90;;;;;;;19.31;72.20;99099.41;107622;1309;22233;-42
2023/06/10 03:44:40;;;;;;;14.90;10.50;;;;;;;19.27;72.92;99095.02;107625;1309;22367;-41
2023/06/10 03:47:05;;;;;;;14.30;10.90;;;;;;;19.26;72.41;99096.36;107643;1309;22575;-40
2023/06/10 03:49:31;;;;;;;14.40;10.20;;;;;;;19.26;72.54;99101.36;107611;1309;22249;-41
2023/06/10 03:51:56;;;;;;;13.80;10.40;;;;;;;19.27;73.11;99103.89;107595;1309;24493;-41
2023/06/10 03:54:22;;;;;;;16.10;10.00;;;;;;;19.29;72.44;99101.38;107587;1310;22933;-41
2023/06/10 03:56:48;;;;;;;11.90;9.30;;;;;;;19.31;72.14;99108.51;107561;1310;22420;-40
2023/06/10 03:59:13;;;;;;;16.10;9.50;;;;;;;19.31;71.53;99111.48;107559;1310;22474;-41
2023/06/10 04:01:41;;;;;;;15.10;9.30;;;;;;;19.29;70.79;99113.52;107568;1310;22285;-41
2023/06/10 04:04:06;;;;;;;;;;;;;;;19.29;70.01;99115.50;107575;1310;23125;-41
2023/06/10 04:06:31;;;;;;;18.70;8.30;;;;;;;19.30;69.39;99118.38;107558;1310;23218;-41
2023/06/10 04:08:56;;;;;;;15.60;8.00;;;;;;;19.30;68.46;99117.52;107653;1309;22259;-41
2023/06/10 04:11:25;;;;;;;12.10;8.00;;;;;;;19.32;67.79;99116.59;107644;1309;22433;-42
2023/06/10 04:13:51;;;;;;;12.40;7.50;;;;;;;19.33;66.98;99116.00;107656;1309;22413;-41
2023/06/10 04:16:17;;;;;;;11.60;8.00;;;;;;;19.28;66.12;99120.16;107636;1309;22962;-42
2023/06/10 04:18:42;;;;;;;13.10;7.50;;;;;;;19.29;66.01;99126.50;107650;1309;23248;-41
2023/06/10 04:21:08;;;;;;;15.10;7.80;;;;;;;19.25;65.19;99131.45;107646;1309;22250;-42
2023/06/10 04:23:35;;;;;;;16.50;8.30;;;;;;;19.22;65.22;99130.33;107649;1309;22521;-41
2023/06/10 04:26:00;;;;;;;12.70;7.90;;;;;;;19.19;64.49;99133.48;107666;1309;23637;-41
2023/06/10 04:28:26;;;;;;;17.80;8.10;;;;;;;19.16;63.99;99131.21;107654;1309;22441;-41
2023/06/10 04:30:52;;;;;;;11.00;7.90;;;;;;;19.10;62.91;99133.36;107638;1309;22401;-41
2023/06/10 04:33:17;;;;;;;13.40;7.30;;;;;;;19.10;62.58;99132.91;107633;1309;22566;-41
2023/06/10 04:35:42;;;;;;;12.10;7.30;;;;;;;19.07;62.44;99131.77;107638;1309;22305;-40
2023/06/10 04:38:07;;;;;;;13.10;7.10;;;;;;;19.04;61.99;99131.66;107625;1309;24292;-40
2023/06/10 04:40:33;;;;;;;11.30;7.10;;;;;;;19.03;61.53;99134.99;107643;1309;23224;-41
2023/06/10 04:42:58;;;;;;;10.70;7.40;;;;;;;19.00;61.83;99132.70;107619;1309;22326;-41
2023/06/10 04:45:24;;;;;;;15.40;7.30;;;;;;;18.98;61.79;99133.84;107682;1309;22472;-41
2023/06/10 04:47:49;;;;;;;11.30;7.00;;;;;;;18.94;61.52;99131.30;107663;1309;22317;-40
2023/06/10 04:50:15;;;;;;;12.80;6.70;;;;;;;18.92;61.05;99133.70;107659;1309;22935;-41
2023/06/10 04:52:44;;;;;;;8.50;6.30;;;;;;;18.92;60.95;99135.81;107630;1309;22260;-41
2023/06/10 04:55:10;;;;;;;13.80;6.40;;;;;;;18.94;60.65;99137.96;107642;1309;22220;-41
2023/06/10 04:57:35;;;;;;;16.70;6.10;;;;;;;18.96;60.11;99134.53;107661;1309;23235;-41
2023/06/10 05:00:00;;;;;;;10.50;6.10;;;;;;;18.95;59.72;99136.74;107645;1309;22268;-41
2023/06/10 05:02:26;;;;;;;9.70;6.00;;;;;;;19.00;60.01;99138.96;107611;1309;22265;-41
2023/06/10 05:04:53;;;;;;;8.50;5.60;;;;;;;19.01;59.78;99139.89;107647;1309;22260;-42
2023/06/10 05:07:18;;;;;;;8.50;5.60;;;;;;;19.04;59.77;99141.79;107650;1309;22259;-41
2023/06/10 05:09:43;;;;;;;10.10;5.70;;;;;;;19.09;59.58;99142.23;107596;1309;22431;-41
2023/06/10 05:12:09;;;;;;;8.50;5.80;;;;;;;19.13;59.36;99141.83;107636;1309;22491;-41
2023/06/10 05:14:34;;;;;;;9.90;6.10;;;;;;;19.16;58.78;99144.68;107671;1309;23321;-41
2023/06/10 05:16:59;;;;;;;11.20;5.20;;;;;;;19.20;58.57;99145.83;107624;1309;22453;-41
2023/06/10 05:19:25;;;;;;;9.90;5.40;;;;;;;19.23;58.36;99146.95;107640;1309;22442;-41
2023/06/10 05:21:50;;;;;;;13.80;5.80;;;;;;;19.25;57.99;99144.11;107676;1309;22444;-41
2023/06/10 05:24:15;;;;;;;14.50;5.40;;;;;;;19.29;58.09;99144.63;107652;1309;23273;-42
2023/06/10 05:26:41;;;;;;;9.50;5.20;;;;;;;19.30;57.70;99145.05;107657;1309;22355;-42
2023/06/10 05:29:07;;;;;;;9.70;5.10;;;;;;;19.35;57.96;99151.38;107665;1309;22485;-41
2023/06/10 05:31:33;;;;;;;6.50;5.10;;;;;;;19.38;57.76;99148.89;107663;1309;22156;-41
2023/06/10 05:33:58;;;;;;;9.40;5.50;;;;;;;19.43;57.61;99154.72;107627;1309;22439;-41
2023/06/10 05:36:25;;;;;;;12.50;5.60;;;;;;;19.48;57.64;99153.48;107626;1309;23380;-41
2023/06/10 05:38:50;;;;;;;11.60;5.20;;;;;;;19.51;57.18;99156.38;107662;1309;22507;-42
2023/06/10 05:41:15;;;;;;;14.60;5.50;;;;;;;19.55;57.25;99159.24;107642;1309;23330;-43
2023/06/10 05:43:41;;;;;;;9.50;5.00;;;;;;;19.59;57.11;99160.68;107654;1309;23080;-41
2023/06/10 05:46:06;;;;;;;8.00;5.00;;;;;;;19.64;57.02;99160.71;107659;1309;22557;-41
2023/06/10 05:48:31;;;;;;;7.70;5.30;;;;;;;19.66;56.43;99160.15;107639;1309;22213;-41
2023/06/10 05:50:56;;;;;;;8.30;5.00;;;;;;;19.69;56.21;99161.15;107659;1309;22255;-41
2023/06/10 05:53:22;;;;;;;10.80;4.80;;;;;;;19.71;56.34;99165.89;107619;1309;22247;-41
2023/06/10 05:55:47;;;;;;;9.40;5.60;;;;;;;19.75;55.98;99167.52;107669;1309;23131;-42
2023/06/10 05:58:13;;;;;;;10.40;5.40;;;;;;;19.79;55.76;99165.88;107630;1309;23107;-41
2023/06/10 06:00:39;;;;;;;8.40;5.10;;;;;;;19.81;55.27;99165.52;107663;1309;22245;-41
2023/06/10 06:03:10;;;;;;;10.70;4.70;;;;;;;19.83;55.27;99167.24;107638;1309;22300;-41
2023/06/10 06:05:37;;;;;;;10.90;5.10;;;;;;;19.85;55.05;99167.92;107649;1309;22238;-41
2023/06/10 06:08:06;;;;;;;8.10;4.70;;;;;;;19.88;55.24;99163.10;107657;1309;22858;-42
2023/06/10 06:10:31;;;;;;;10.00;4.50;;;;;;;19.90;55.53;99162.46;107655;1309;22424;-41
2023/06/10 06:12:57;;;;;;;9.40;5.20;;;;;;;19.93;55.34;99162.90;107641;1309;22226;-42
2023/06/10 06:15:22;;;;;;;7.60;4.80;;;;;;;19.95;55.33;99163.60;107634;1309;22402;-41
2023/06/10 06:17:48;;;;;;;9.10;4.90;;;;;;;19.99;54.96;99162.17;107650;1309;22719;-41
2023/06/10 06:20:13;;;;;;;14.60;5.10;;;;;;;20.04;55.17;99162.59;107640;1309;23109;-41
2023/06/10 06:22:38;;;;;;;6.60;4.90;;;;;;;20.09;55.19;99166.41;107661;1309;23088;-41
2023/06/10 06:25:04;;;;;;;10.80;5.30;;;;;;;20.12;55.21;99167.66;107637;1309;22329;-43
2023/06/10 06:27:30;;;;;;;15.80;4.90;;;;;;;20.17;55.25;99163.61;107676;1309;22523;-42
2023/06/10 06:29:56;;;;;;;15.20;4.70;;;;;;;20.22;55.05;99163.00;107665;1309;23106;-42
2023/06/10 06:32:22;;;;;;;10.00;4.80;;;;;;;20.27;54.95;99162.66;107646;1309;22430;-42
2023/06/10 06:34:49;;;;;;;11.40;4.70;;;;;;;20.32;54.71;99166.25;107706;1309;22335;-42
2023/06/10 06:37:14;;;;;;;9.80;5.20;;;;;;;20.34;54.14;99170.73;107648;1309;23009;-42
2023/06/10 06:39:40;;;;;;;9.90;5.10;;;;;;;20.39;54.49;99171.70;107680;1309;22538;-42
2023/06/10 06:42:05;;;;;;;8.30;5.20;;;;;;;20.43;54.39;99173.57;107640;1309;22191;-42
2023/06/10 06:44:31;;;;;;;7.80;4.80;;;;;;;20.50;54.83;99177.39;107667;1309;22243;-42
2023/06/10 06:46:56;;;;;;;11.10;5.10;;;;;;;20.53;54.59;99180.06;107649;1309;22461;-42
2023/06/10 06:49:21;;;;;;;8.90;4.10;;;;;;;20.57;54.38;99182.19;107637;1309;22433;-42
2023/06/10 06:51:46;;;;;;;9.80;5.40;;;;;;;20.58;54.25;99185.12;107648;1309;22224;-42
2023/06/10 06:54:12;;;;;;;7.10;5.10;;;;;;;20.59;54.39;99187.28;107656;1309;22315;-42
2023/06/10 06:56:38;;;;;;;6.10;4.60;;;;;;;20.63;54.07;99191.58;107675;1309;22282;-42
2023/06/10 06:59:04;;;;;;;7.80;4.80;;;;;;;20.67;53.97;99193.89;107674;1309;22275;-42
2023/06/10 07:01:29;;;;;;;7.50;5.00;;;;;;;20.72;54.15;99195.30;107668;1309;22472;-42
2023/06/10 07:03:55;;;;;;;8.90;4.50;;;;;;;20.78;53.94;99200.27;107678;1309;23007;-42
2023/06/10 07:06:20;;;;;;;9.30;5.10;;;;;;;20.84;54.03;99198.02;107664;1309;22996;-41
2023/06/10 07:08:45;;;;;;;12.10;4.50;;;;;;;20.91;54.01;99202.90;107655;1309;23028;-41
2023/06/10 07:11:11;;;;;;;11.20;5.20;;;;;;;20.97;54.01;99201.35;107629;1309;22242;-42
2023/06/10 07:13:36;;;;;;;8.10;5.20;;;;;;;21.05;54.07;99204.72;107657;1309;22228;-42
2023/06/10 07:16:01;;;;;;;10.40;5.10;;;;;;;21.13;53.67;99206.79;107679;1294;22246;-42
2023/06/10 07:18:27;;;;;;;17.70;5.40;;;;;;;21.18;53.88;99208.90;107682;1309;22402;-42
2023/06/10 07:20:52;;;;;;;11.80;5.80;;;;;;;21.24;53.87;99210.13;107667;1309;22274;-42
2023/06/10 07:23:17;;;;;;;12.30;5.20;;;;;;;21.31;54.04;99211.71;107641;1309;22568;-42
2023/06/10 07:25:43;;;;;;;9.20;5.10;;;;;;;21.39;53.77;99216.09;107646;1309;22261;-42
2023/06/10 07:28:08;;;;;;;13.70;5.40;;;;;;;21.45;53.64;99220.09;107672;1309;22243;-43
2023/06/10 07:30:33;;;;;;;8.70;5.70;;;;;;;21.40;53.42;99217.90;107662;1309;22231;-42
2023/06/10 07:32:59;;;;;;;16.30;5.90;;;;;;;21.42;53.91;99220.89;107670;1309;22427;-42
2023/06/10 07:35:24;;;;;;;10.30;5.40;;;;;;;21.52;53.98;99221.05;107681;1286;23245;-42
2023/06/10 07:37:50;;;;;;;10.60;5.70;;;;;;;21.61;53.92;99220.35;107655;1309;22333;-43
2023/06/10 07:40:15;;;;;;;10.80;5.20;;;;;;;21.67;53.92;99223.06;107650;1309;22496;-42
2023/06/10 07:42:41;;;;;;;9.90;4.90;;;;;;;21.72;53.94;99223.39;107668;1309;24008;-43
2023/06/10 07:45:07;;;;;;;7.50;4.60;;;;;;;21.80;54.09;99228.48;107662;1309;22950;-42
2023/06/10 07:47:33;;;;;;;9.30;5.30;;;;;;;21.87;54.40;99227.63;107673;1309;22364;-43
2023/06/10 07:49:59;;;;;;;11.70;5.20;;;;;;;21.94;54.29;99229.20;107676;1309;22214;-42
2023/06/10 07:52:25;;;;;;;7.60;5.10;;;;;;;21.90;53.98;99233.16;107683;1309;22422;-43
2023/06/10 07:54:51;;;;;;;15.20;5.10;;;;;;;21.93;54.36;99231.64;107671;1309;23243;-42
2023/06/10 07:57:17;;;;;;;5.60;4.90;;;;;;;22.02;54.35;99226.19;107684;1309;22990;-42
2023/06/10 07:59:44;;;;;;;24.10;6.00;;;;;;;22.14;54.47;99226.21;107688;1307;23004;-42
2023/06/10 08:02:09;;;;;;;9.30;5.50;;;;;;;22.24;54.53;99226.64;107647;1286;22584;-41
2023/06/10 08:04:35;;;;;;;8.50;4.60;;;;;;;22.32;54.29;99227.45;107601;1307;22255;-42
2023/06/10 08:07:01;;;;;;;10.30;5.10;;;;;;;22.44;54.22;99223.45;107583;1310;22229;-42
2023/06/10 08:09:26;;;;;;;8.50;4.80;;;;;;;22.57;53.99;99226.03;107588;1310;22528;-43
2023/06/10 08:11:51;;;;;;;5.10;4.40;;;;;;;22.67;53.98;99225.35;107604;1310;22427;-43
2023/06/10 08:14:17;;;;;;;13.80;5.40;;;;;;;22.79;53.59;99225.70;107594;1310;22329;-43
2023/06/10 08:16:43;;;;;;;10.90;4.70;;;;;;;22.86;52.83;99232.02;107576;1310;23122;-43
2023/06/10 08:19:09;;;;;;;12.50;5.10;;;;;;;22.96;52.61;99230.41;107589;1310;22445;-43
2023/06/10 08:21:36;;;;;;;11.10;7.10;;;;;;;23.11;52.84;99229.58;107595;1310;22435;-43
2023/06/10 08:24:02;;;;;;;9.10;5.00;;;;;;;23.21;52.22;99233.30;107579;1310;22439;-43
2023/06/10 08:26:27;;;;;;;5.80;4.40;;;;;;;23.34;52.12;99231.50;107619;1310;22191;-43
2023/06/10 08:28:52;;;;;;;11.60;5.10;;;;;;;23.51;51.49;99229.52;107558;1309;23513;-41
2023/06/10 08:31:18;;;;;;;7.20;4.50;;;;;;;23.69;50.93;99227.66;107584;1310;22217;-41
2023/06/10 08:33:43;;;;;;;5.60;4.20;;;;;;;23.86;50.55;99232.43;107574;1310;22218;-41
2023/06/10 08:36:08;;;;;;;9.10;4.10;;;;;;;24.03;49.48;99233.44;107568;1310;23081;-42
2023/06/10 08:38:34;;;;;;;4.40;3.90;;;;;;;24.17;49.35;99235.45;107587;1310;23345;-42
2023/06/10 08:41:01;;;;;;;7.60;4.10;;;;;;;24.32;48.82;99235.35;107577;1310;22174;-42
2023/06/10 08:43:55;;;;;;;11.10;4.60;;;;;;;24.40;48.52;99234.00;107591;1310;22488;-42
2023/06/10 08:46:20;;;;;;;12.60;4.60;;;;;;;24.58;48.68;99234.55;107584;1310;22496;-41
2023/06/10 08:48:48;;;;;;;11.90;4.00;;;;;;;24.79;48.05;99228.54;107562;1310;22278;-42
2023/06/10 08:51:17;;;;;;;13.30;4.20;;;;;;;24.95;46.55;99236.23;107572;1310;22404;-43
2023/06/10 08:53:50;;;;;;;5.30;3.80;;;;;;;25.03;45.94;99241.19;107583;1310;22936;-41
2023/06/10 08:56:17;;;;;;;8.80;4.50;;;;;;;25.15;45.70;99242.43;107590;1310;22291;-41
2023/06/10 08:58:43;;;;;;;5.00;4.20;;;;;;;25.32;45.12;99240.30;107571;1310;23405;-42
2023/06/10 09:01:09;;;;;;;8.00;4.20;;;;;;;25.57;45.38;99242.55;107609;1310;22621;-42
2023/06/10 09:03:37;;;;;;;7.10;4.20;;;;;;;25.80;44.58;99246.46;107574;1310;22238;-43
2023/06/10 09:06:05;;;;;;;11.70;4.60;;;;;;;25.93;41.49;99245.79;107570;1310;22961;-42
2023/06/10 09:08:30;;;;;;;5.80;3.90;;;;;;;26.08;40.53;99241.86;107587;1310;22970;-43
2023/06/10 09:10:57;;;;;;;13.10;4.10;;;;;;;26.22;40.06;99243.01;107579;1310;22239;-43
2023/06/10 09:13:22;;;;;;;5.70;3.90;;;;;;;26.35;40.31;99233.76;107614;1309;22471;-43
2023/06/10 09:15:49;;;;;;;6.80;3.90;;;;;;;26.52;39.68;99234.79;107611;1309;23018;-43
2023/06/10 09:18:14;;;;;;;5.70;4.10;;;;;;;26.68;39.62;99235.79;107637;1309;22870;-42
2023/06/10 09:20:40;;;;;;;8.10;3.90;;;;;;;26.93;38.52;99236.19;107642;1309;22253;-42
2023/06/10 09:23:06;;;;;;;5.80;4.30;;;;;;;27.17;37.33;99241.91;107642;1309;22252;-42
2023/06/10 09:25:36;;;;;;;8.80;4.10;;;;;;;27.50;36.15;99237.46;107642;1309;22235;-42
2023/06/10 09:28:03;;;;;;;6.90;3.70;;;;;;;27.89;35.17;99235.96;107617;1309;22439;-43
2023/06/10 09:30:34;;;;;;;6.90;3.60;;;;;;;28.31;33.66;99237.90;107636;1309;23222;-43
2023/06/10 09:33:02;;;;;;;8.50;4.00;;;;;;;28.75;31.91;99236.79;107606;1309;23093;-42
2023/06/10 09:35:30;;;;;;;4.20;3.40;;;;;;;29.29;33.42;99236.64;107611;1309;22262;-43
2023/06/10 09:37:57;;;;;;;3.80;3.10;;;;;;;29.83;31.79;99242.23;107633;1309;22937;-43
2023/06/10 09:40:23;;;;;;;6.00;3.40;;;;;;;30.29;30.23;99243.91;107629;1309;22263;-43
2023/06/10 09:42:59;;;;;;;7.20;3.50;;;;;;;30.57;27.81;99244.77;107614;1309;22249;-43
2023/06/10 09:45:33;;;;;;;4.90;3.40;;;;;;;31.02;27.29;99240.94;107613;1309;23179;-44
2023/06/10 09:48:00;;;;;;;5.30;3.00;;;;;;;31.55;27.40;99238.93;107626;1309;22406;-44
2023/06/10 09:50:25;;;;;;;6.70;3.30;;;;;;;32.04;25.37;99245.26;107622;1309;22251;-43
2023/06/10 09:52:51;;;;;;;7.00;3.20;;;;;;;32.50;24.60;99243.96;107626;1309;22334;-43
2023/06/10 09:55:17;;;;;;;3.80;3.20;;;;;;;32.94;23.33;99244.52;107627;1309;22491;-43
2023/06/10 09:57:47;;;;;;;12.50;3.80;;;;;;;33.43;23.72;99241.66;107611;1309;23260;-44
2023/06/10 10:00:15;;;;;;;4.80;3.20;;;;;;;33.94;22.59;99247.76;107631;1309;22355;-43
2023/06/10 10:02:47;;;;;;;5.30;2.90;;;;;;;34.21;21.23;99253.42;107603;1309;22981;-43
2023/06/10 10:05:15;;;;;;;5.60;2.80;;;;;;;34.58;21.84;99254.81;107448;1309;22262;-45
2023/06/10 10:07:40;;;;;;;4.00;2.80;;;;;;;34.63;20.59;99252.02;107610;1309;22240;-41
2023/06/10 10:10:07;;;;;;;5.40;2.90;;;;;;;34.80;19.33;99255.41;107642;1309;22290;-42
2023/06/10 10:12:35;;;;;;;5.80;3.10;;;;;;;35.04;19.31;99255.02;107471;1297;22195;-44
2023/06/10 10:15:02;;;;;;;6.00;3.10;;;;;;;35.30;18.38;99253.52;107617;1309;22258;-43
2023/06/10 10:17:30;;;;;;;9.10;2.80;;;;;;;35.53;18.18;99257.45;107617;1309;22841;-42
2023/06/10 10:20:03;;;;;;;3.30;3.00;;;;;;;35.52;17.05;99253.55;107641;1309;22289;-44
2023/06/10 10:22:40;;;;;;;7.50;3.10;;;;;;;35.59;17.24;99251.42;107624;1309;22468;-43
2023/06/10 10:25:10;;;;;;;2.80;2.60;;;;;;;35.88;17.53;99246.89;107625;1309;22236;-44
2023/06/10 10:27:43;;;;;;;3.40;3.00;;;;;;;36.23;18.14;99246.34;107613;1309;22310;-43
2023/06/10 10:30:11;;;;;;;6.80;2.70;;;;;;;36.37;17.65;99250.75;107457;1309;22341;-43
2023/06/10 10:33:04;;;;;;;4.30;2.80;;;;;;;36.51;17.32;99252.05;107650;1309;22248;-43
2023/06/10 10:35:32;;;;;;;3.10;2.90;;;;;;;36.58;16.41;99254.56;107624;1309;22411;-43
2023/06/10 10:37:58;;;;;;;9.00;2.70;;;;;;;36.56;15.18;99252.34;107610;1309;22238;-40
2023/06/10 10:40:25;;;;;;;6.00;3.10;;;;;;;36.75;15.50;99257.54;107641;1309;22416;-42
2023/06/10 10:42:51;;;;;;;5.20;2.60;;;;;;;37.11;15.66;99264.61;107630;1309;22439;-42
2023/06/10 10:45:16;;;;;;;;;;;;;;;37.35;15.07;99259.88;107622;1309;23276;-42
2023/06/10 10:47:51;;;;;;;2.90;2.60;;;;;;;37.51;14.79;99255.91;107617;1309;22408;-42
2023/06/10 10:50:18;;;;;;;3.80;2.60;;;;;;;37.53;14.39;99261.25;107644;1309;22943;-42
2023/06/10 10:53:00;;;;;;;3.40;2.90;;;;;;;37.30;13.89;99261.27;107627;1309;22255;-42
2023/06/10 10:55:27;;;;;;;2.90;2.70;;;;;;;37.54;14.02;99259.34;107613;1309;22370;-42
2023/06/10 10:57:57;;;;;;;3.40;2.90;;;;;;;37.71;14.28;99261.34;107639;1309;22261;-51
2023/06/10 11:00:36;;;;;;;4.40;2.60;;;;;;;38.07;14.24;99256.90;107603;1309;22232;-42
2023/06/10 11:03:12;;;;;;;3.70;2.60;;;;;;;38.32;12.88;99253.18;107622;1309;22304;-43
2023/06/10 11:05:49;;;;;;;4.40;2.80;;;;;;;38.48;13.14;99252.03;107679;1309;22376;-43
2023/06/10 11:08:35;;;;;;;5.00;2.90;;;;;;;38.81;12.95;99249.77;107675;1309;23051;-43
2023/06/10 11:11:00;;;;;;;4.00;2.50;;;;;;;38.88;12.82;99249.64;107645;1309;22318;-42
2023/06/10 11:13:27;;;;;;;;;;;;;;;39.09;12.28;99258.31;107658;1309;23131;-43
2023/06/10 11:15:56;;;;;;;6.50;2.60;;;;;;;39.06;12.14;99255.40;107653;1309;22262;-44
2023/06/10 11:18:25;;;;;;;3.10;2.60;;;;;;;39.09;12.33;99249.55;107661;1309;23129;-43
2023/06/10 11:21:02;;;;;;;4.10;3.20;;;;;;;38.75;12.49;99246.80;107664;1309;22597;-44
2023/06/10 11:23:27;;;;;;;5.20;2.70;;;;;;;38.32;12.32;99246.95;107667;1309;22243;-43
2023/06/10 11:26:31;;;;;;;4.20;3.00;;;;;;;38.46;12.24;99250.98;107662;1309;23406;-44
2023/06/10 11:28:56;;;;;;;7.90;2.80;;;;;;;38.29;12.67;99252.63;107667;1309;22476;-43
2023/06/10 11:31:39;;;;;;;4.50;2.70;;;;;;;38.57;12.59;99248.17;107872;1307;22491;-43
2023/06/10 11:34:06;;;;;;;4.30;2.60;;;;;;;38.63;12.89;99244.67;107870;1307;22299;-43
2023/06/10 11:36:33;;;;;;;3.00;2.70;;;;;;;38.83;12.73;99244.02;107862;1307;22306;-38
2023/06/10 11:39:00;;;;;;;5.10;3.20;;;;;;;38.84;13.01;99244.79;107686;1307;22286;-47
2023/06/10 11:41:26;;;;;;;6.20;3.10;;;;;;;38.84;13.19;99238.29;107880;1307;22435;-39
2023/06/10 11:43:54;;;;;;;6.80;3.00;;;;;;;38.84;13.18;99232.26;107860;1307;23180;-43
2023/06/10 11:46:19;;;;;;;5.10;2.90;;;;;;;39.03;13.05;99235.73;107858;1307;22505;-43
2023/06/10 11:49:02;;;;;;;3.40;3.10;;;;;;;39.19;13.36;99230.92;107851;1307;22999;-43
2023/06/10 11:51:29;;;;;;;3.30;3.00;;;;;;;39.00;13.63;99234.70;107857;1307;22364;-42
2023/06/10 11:53:55;;;;;;;2.80;2.60;;;;;;;38.62;13.64;99229.02;107848;1307;22248;-43
2023/06/10 11:56:24;;;;;;;;;;;;;;;38.55;13.75;99226.30;107868;1307;22477;-45
2023/06/10 11:59:05;;;;;;;5.40;3.10;;;;;;;37.83;13.93;99221.94;107849;1307;22213;-42
2023/06/10 12:01:32;;;;;;;4.30;3.20;;;;;;;37.52;14.31;99220.10;107874;1307;22326;-42
2023/06/10 12:04:03;;;;;;;6.10;2.90;;;;;;;37.65;14.25;99218.28;107844;1307;22387;-42
2023/06/10 12:06:58;;;;;;;7.60;3.00;;;;;;;37.48;14.12;99213.14;107836;1307;22312;-43
2023/06/10 12:09:27;;;;;;;3.40;3.00;;;;;;;37.00;14.44;99221.08;107161;1314;22367;-43
2023/06/10 12:11:54;;;;;;;7.30;3.00;;;;;;;36.42;14.76;99220.58;107159;1314;23934;-42
2023/06/10 12:14:57;;;;;;;4.40;2.70;;;;;;;35.99;15.07;99216.62;107195;1314;22273;-43
2023/06/10 12:17:39;;;;;;;8.60;3.10;;;;;;;35.36;15.12;99216.63;107159;1314;22432;-42
2023/06/10 12:20:07;;;;;;;7.30;2.90;;;;;;;34.58;15.41;99217.17;107189;1314;22264;-41
2023/06/10 12:22:50;;;;;;;9.40;3.10;;;;;;;34.32;15.73;99216.04;107146;1314;22274;-42
2023/06/10 12:25:15;;;;;;;6.00;3.10;;;;;;;33.86;16.30;99211.41;107154;1314;22857;-41
2023/06/10 12:27:51;;;;;;;6.30;3.10;;;;;;;33.12;17.11;99204.67;107154;1314;23219;-41
2023/06/10 12:30:20;;;;;;;3.30;3.00;;;;;;;32.84;17.32;99205.05;107163;1314;22063;-41
2023/06/10 12:32:46;;;;;;;3.10;2.80;;;;;;;32.84;17.64;99200.75;107173;1314;22242;-41
2023/06/10 12:35:17;;;;;;;6.10;3.00;;;;;;;32.86;17.75;99202.33;107181;1314;22421;-42
2023/06/10 12:37:43;;;;;;;7.60;3.10;;;;;;;32.46;17.75;99206.91;107191;1314;22290;-42
2023/06/10 12:40:09;;;;;;;4.70;3.10;;;;;;;32.41;18.24;99206.92;107164;1314;23311;-42
2023/06/10 12:42:38;;;;;;;7.60;3.10;;;;;;;32.40;17.89;99214.36;107172;1314;21995;-42
2023/06/10 12:45:05;;;;;;;8.10;3.50;;;;;;;32.30;17.96;99209.35;107196;1309;22430;-41
2023/06/10 12:47:34;;;;;;;6.70;3.50;;;;;;;31.82;17.88;99211.73;107884;1307;22399;-42
2023/06/10 12:50:00;;;;;;;5.20;3.00;;;;;;;31.36;18.05;99207.52;107860;1307;22213;-42
2023/06/10 12:52:26;;;;;;;5.70;3.00;;;;;;;31.23;18.99;99200.05;107903;1307;22242;-42
2023/06/10 12:54:52;;;;;;;7.20;3.50;;;;;;;31.16;19.24;99196.13;107879;1307;22551;-42
2023/06/10 12:57:17;;;;;;;6.60;3.10;;;;;;;31.00;19.62;99193.59;107862;1307;22441;-42
2023/06/10 12:59:49;;;;;;;11.90;3.40;;;;;;;31.20;19.61;99190.17;107861;1307;22275;-42
2023/06/10 13:02:15;;;;;;;6.40;2.70;;;;;;;31.27;19.02;99194.10;107834;1307;22243;-45
2023/06/10 13:04:42;;;;;;;3.20;3.00;;;;;;;31.18;18.80;99197.43;107873;1307;22329;-42
2023/06/10 13:07:07;;;;;;;8.20;2.90;;;;;;;31.09;19.10;99192.85;107879;1307;22664;-43
2023/06/10 13:09:33;;;;;;;4.60;3.00;;;;;;;31.19;19.27;99193.25;107876;1307;22402;-43
2023/06/10 13:11:59;;;;;;;4.70;2.90;;;;;;;31.25;19.28;99193.63;107853;1307;22146;-42
2023/06/10 13:14:25;;;;;;;7.10;3.30;;;;;;;31.22;19.45;99197.48;107870;1307;22434;-42
2023/06/10 13:16:50;;;;;;;6.20;2.80;;;;;;;31.17;19.16;99192.54;107837;1307;23007;-42
2023/06/10 13:19:16;;;;;;;9.20;2.80;;;;;;;31.01;19.07;99190.65;107881;1307;22263;-43
2023/06/10 13:21:41;;;;;;;6.50;3.10;;;;;;;30.38;19.30;99188.27;107864;1307;22510;-43
2023/06/10 13:24:07;;;;;;;8.00;3.20;;;;;;;30.28;19.98;99186.41;107860;1307;22958;-42
2023/06/10 13:26:32;;;;;;;6.30;2.70;;;;;;;30.11;20.33;99191.55;107862;1307;22256;-42
2023/06/10 13:28:57;;;;;;;3.30;2.80;;;;;;;30.04;20.22;99190.39;107844;1307;22248;-42
2023/06/10 13:31:23;;;;;;;4.80;3.10;;;;;;;29.98;20.68;99185.27;107863;1307;22367;-40
2023/06/10 13:33:48;;;;;;;5.40;3.10;;;;;;;30.17;20.77;99184.16;107822;1307;22365;-42
2023/06/10 13:36:13;;;;;;;6.10;3.20;;;;;;;30.23;20.56;99188.27;107843;1307;22420;-42
2023/06/10 13:38:39;;;;;;;4.70;3.00;;;;;;;30.30;20.61;99190.98;107849;1294;22262;-43
2023/06/10 13:41:04;;;;;;;6.80;3.20;;;;;;;30.27;20.51;99183.61;107873;1307;22431;-42
2023/06/10 13:43:29;;;;;;;8.60;3.40;;;;;;;29.83;20.63;99191.98;107852;1307;22213;-43
2023/06/10 13:45:55;;;;;;;5.00;3.00;;;;;;;29.53;20.92;99182.14;107844;1307;22347;-42
2023/06/10 13:48:21;;;;;;;6.30;3.60;;;;;;;29.62;21.02;99175.79;107877;1307;22328;-43
2023/06/10 13:50:46;;;;;;;5.90;3.40;;;;;;;29.51;21.20;99175.52;107887;1307;22238;-41
2023/06/10 13:53:12;;;;;;;8.00;3.30;;;;;;;29.47;21.36;99178.56;107859;1307;22392;-41
2023/06/10 13:55:37;;;;;;;8.70;3.60;;;;;;;29.62;21.16;99178.83;107846;1307;22354;-41
2023/06/10 13:58:03;;;;;;;5.30;3.20;;;;;;;29.25;20.62;99177.63;107855;1307;23502;-41
2023/06/10 14:00:28;;;;;;;5.50;3.10;;;;;;;29.31;21.08;99174.41;107864;1307;22323;-40
2023/06/10 14:02:54;;;;;;;6.20;3.50;;;;;;;29.44;20.79;99172.68;107853;1307;22183;-42
2023/06/10 14:05:19;;;;;;;5.60;3.10;;;;;;;29.33;20.60;99177.91;107836;1307;22419;-42